Startpagina
METAR-TAF:

METAR-TAF

Vliegvelden :

Geilenkirchen, Duitsland

breedte: 50-57-39N, lengte: 006-2-33E, hoogte: 90 m

Actueel weer

Dit bericht is 27 minuten geleden gemaakt, om 05:25 UTC
Wind 1 kt uit variabele richting
Temperatuur 2°C
Vochtigheid 93%
Druk 1025 hPa
Zicht 10 km of meer
geen wolken onder 1500 m en geen cumulonimbus

METAR: ETNG 220525Z VRB01KT CAVOK 02/01 Q1025 NOSIG

Tijdstip: 07:52 (05:52 UTC)

Verwachting

Dit bericht is 52 minuten geleden gemaakt, om 05:00 UTC
Verwachting geldig van 22 om 06 UTC tot 22 om 21 UTC
Wind 5 kt uit het noorden
Zicht 10 km of meer
Weinig wolken op 3000 ft
Kans 30% :
Tijdelijke
van 22 om 10 UTC tot 22 om 18 UTC
Wind 10 kt uit het noorden met uitschieters tot 15 kt
Zicht: 5000 m
Verspreide wolken op 3000 ft, Cumulonimbus.
lichte regenbuien, korrelhagel of korrelsneeuw,

TAF: ETNG 220500Z 2206/2221 36005KT 9999 FEW030 PROB30 TEMPO 2210/2218 36010G15KT 5000 -SHRAGS SCT030CB

Waarnemingen en weersverwachtingen van meer dan 4000 vliegvelden (METAR en TAF).

De beschikbare stations zijn de gele en rode punten op de kaart.

Ga met uw muis naar het station om de naam te zien.

Klik dan om waarnemingen en weersverwachtingen te zien.

kaart wijzigen: klik op de groene knoppen met een zwart kruis om in te zoomen, op de groene knop met een streepje om uit te zoomen of op de groene pijlen voor aangrenzende kaarten.


METAR-TAF: